»·PEaware :: N149CD KVNY-KSBA

N149CD :: KVNY-KSBA

FLIGHT INFORMATION

Flight Status: Arrived
Operator: Privately registered:
United States
More flights under this callsign
Pilot: Nathan E. (30132)
Aircraft: CIRRUS SR-22
(SR22)
More flights by this aircraft type
Origin: KVNY Van Nuys
United States
Destination: KSBA Santa Barbara Mun
United States
More flights between these airports :: More routes between these airports
Route: CANOG3 FIM V186 DEANO V27 KWANG
File this flight plan on PilotEdge
Remarks: TEC route BURP39
Altitude:
(Current/Filed)
6,000ft
Speed:
(Current/Filed)
170kts
Departed: 31-Dec-20 04:44 PM
Arrived: 31-Dec-20 05:15 PM
Distance/Time
Traveled:
68nm/0:31
Distance/Time
To Go:
Arrived

Flight Plot

Page will automatically refresh every two minutes.

Flight plan parsing failed; only flown route is shown


Map Options




Map Legend


Flown Route
Filed Route
Departure Airport
Arrival Airport
Navaid (VOR, NDB)
Fix

Horizontal Profiles

Position Reports

Time Latitude Longitude Heading Altitude Ground
Speed
31-Dec-20 16:24 34.208083 -118.491770 90 804ft 0kts
31-Dec-20 16:25 34.208083 -118.491770 90 804ft 0kts
31-Dec-20 16:26 34.208083 -118.491770 90 804ft 0kts
31-Dec-20 16:27 34.208083 -118.491770 90 804ft 0kts
31-Dec-20 16:28 34.208083 -118.491770 90 804ft 0kts
31-Dec-20 16:29 34.208083 -118.491770 90 804ft 0kts
31-Dec-20 16:30 34.208083 -118.491770 90 804ft 0kts
31-Dec-20 16:31 34.208083 -118.491770 90 804ft 0kts
31-Dec-20 16:32 34.208083 -118.491770 90 804ft 0kts
31-Dec-20 16:33 34.208083 -118.491770 90 804ft 0kts
31-Dec-20 16:34 34.208083 -118.491770 90 804ft 0kts
31-Dec-20 16:35 34.208084 -118.491762 82 804ft 0kts
31-Dec-20 16:36 34.203963 -118.490983 175 804ft 21kts
31-Dec-20 16:37 34.198830 -118.490174 175 804ft 22kts
31-Dec-20 16:38 34.196763 -118.489891 344 804ft 0kts
31-Dec-20 16:39 34.196763 -118.489891 344 804ft 0kts
31-Dec-20 16:40 34.196763 -118.489891 344 804ft 0kts
31-Dec-20 16:41 34.196763 -118.489891 344 804ft 0kts
31-Dec-20 16:42 34.196763 -118.489891 344 804ft 0kts
31-Dec-20 16:43 34.201009 -118.489554 351 818ft 81kts
31-Dec-20 16:45 34.230470 -118.491981 328 2121ft 107kts
31-Dec-20 16:46 34.229231 -118.530025 264 3551ft 127kts
31-Dec-20 16:47 34.220692 -118.577031 266 4013ft 166kts
31-Dec-20 16:48 34.216741 -118.632214 311 3988ft 157kts
31-Dec-20 16:49 34.240716 -118.671278 306 4775ft 136kts
31-Dec-20 16:50 34.261211 -118.707738 306 5699ft 125kts
31-Dec-20 16:51 34.281951 -118.745173 306 6011ft 146kts
31-Dec-20 16:52 34.304078 -118.785352 305 6007ft 147kts
31-Dec-20 16:53 34.327271 -118.827599 304 6001ft 151kts
31-Dec-20 16:54 34.350662 -118.870262 304 6001ft 151kts
31-Dec-20 16:55 34.353661 -118.921116 269 5969ft 159kts
31-Dec-20 16:56 34.349864 -118.974741 269 5954ft 157kts
31-Dec-20 16:57 34.346004 -119.027423 269 5989ft 154kts
31-Dec-20 16:58 34.342141 -119.079471 269 5991ft 155kts
31-Dec-20 16:58 34.338886 -119.123154 270 5991ft 155kts
31-Dec-20 17:00 34.334310 -119.184300 270 5991ft 156kts
31-Dec-20 17:01 34.330356 -119.236809 271 5991ft 156kts
31-Dec-20 17:02 34.326367 -119.289562 272 5991ft 157kts
31-Dec-20 17:02 34.322979 -119.334158 272 5994ft 159kts
31-Dec-20 17:03 34.318866 -119.387850 272 5998ft 160kts
31-Dec-20 17:04 34.314580 -119.443921 271 5600ft 176kts
31-Dec-20 17:05 34.309927 -119.503970 270 4813ft 181kts
31-Dec-20 17:06 34.325893 -119.557312 299 3981ft 164kts
31-Dec-20 17:07 34.345235 -119.607200 298 3172ft 164kts
31-Dec-20 17:08 34.364873 -119.657926 296 2375ft 168kts
31-Dec-20 17:09 34.383968 -119.707380 296 2116ft 151kts
31-Dec-20 17:10 34.399349 -119.749806 296 1430ft 119kts
31-Dec-20 17:11 34.411773 -119.782201 294 959ft 95kts
31-Dec-20 17:12 34.426540 -119.806202 296 614ft 85kts
31-Dec-20 17:13 34.427915 -119.834056 268 45ft 80kts
31-Dec-20 17:14 34.428172 -119.846157 34 13ft 8kts
31-Dec-20 17:15 34.428619 -119.845129 64 13ft 15kts
31-Dec-20 17:16 34.430656 -119.839916 69 13ft 15kts
31-Dec-20 17:17 34.432470 -119.836009 339 13ft 9kts
31-Dec-20 17:18 34.432768 -119.836145 339 13ft 0kts
31-Dec-20 17:19 34.432768 -119.836145 339 13ft 0kts

Navigation Log

Ident Type
Flight plan parsing failed, navigation log unavailable